x

Ne St Martin - 330 Nm Ne St Martin Is (41044) Wave Buoy

6:50pm - Mon 27th Apr 2015 All times are UTC.

  • Sig Wave height 5.9ft
  • Swell Direction
  • Peak Period 10s
  • Average Period 6s
  • Wind
    16mph, 18mph gusts
  • Sea Temp 79°f
  • Air Temp 80°f
  • Sea Pressure 1013.7mb

More Historic Weather Station data

Upgrade to MSW Pro to gain access to the past 30 days of data for over 8000 Wavebouys and Weather Stations around the globe.

Join Pro

Comparision Forecast

View Surf forecast
   
Mon 04/27 6:50pm 6ft 10s 6s 16 18 mph 1013.7mb 79f 80f
5:50pm 4.5ft 11s 6s 16 20 mph 1013.5mb 79f 80f
4:50pm 5.5ft 11s 6s 16 20 mph 1014.6mb 79f 80f
3:50pm 5.5ft 11s 6s 16 20 mph 1015.4mb 79f 79f
2:50pm 5ft 11s 6s 16 18 mph 1015.8mb 79f 79f
1:50pm 5ft 10s 6s 16 18 mph 1016mb 79f 79f
12:50pm 6ft 10s 7s 16 20 mph 1015.7mb 79f 79f
11:50am 6ft 10s 7s 16 20 mph 1015.3mb 79f 79f
10:50am 5.5ft 11s 7s 16 18 mph 1014.9mb 79f 79f
9:50am 5.5ft 11s 7s 13 18 mph 1014.3mb 79f 79f
8:50am 5.5ft 10s 7s 13 18 mph 1013.9mb 79f 78f
7:50am 5.5ft 11s 7s 16 18 mph 1013.5mb 79f 78f
6:50am 5ft 10s 6s 16 18 mph 1013.8mb 79f 78f
5:50am 5ft 10s 6s 13 18 mph 1014.1mb 79f 78f
4:50am 5ft 10s 6s 16 18 mph 1014.8mb 79f 78f
3:50am 4.5ft 10s 6s 13 16 mph 1015.8mb 79f 79f
2:50am 4.5ft 10s 6s 13 16 mph 1016.4mb 79f 79f
1:50am 4.5ft 9s 6s 11 13 mph 1016.6mb 79f 79f
12:50am 4.5ft 9s 6s 11 13 mph 1016.3mb 79f 79f
Sun 04/26 11:50pm 4.5ft 11s 5s 13 16 mph 1015.9mb 79f 79f
9:50pm 4.5ft 11s 5s 13 16 mph 1015mb 79f 80f
8:50pm 4.5ft 8s 5s 16 18 mph 1014.7mb 79f 80f
7:50pm 4.5ft 10s 5s 16 18 mph 1014.3mb 79f 80f
6:50pm 4.5ft 4s 5s 16 20 mph 1014.8mb 79f 80f
5:50pm 4.5ft 4s 5s 16 18 mph 1015.2mb 79f 80f
4:50pm 4ft 8s 5s 18 20 mph 1015.3mb 79f 79f
3:50pm 4ft 11s 5s 18 20 mph 1015.7mb 79f 79f
2:50pm 4ft 8s 5s 16 20 mph 1015.8mb 79f 79f
1:50pm 4ft 11s 5s 16 18 mph 1015.8mb 79f 79f
12:50pm 4.5ft 11s 5s 7 9 mph 1015.9mb 79f 75f
11:50am 4ft 11s 5s 18 22 mph 1015.6mb 79f 77f
10:50am 4ft 11s 6s 13 18 mph 1015.2mb 79f 78f
9:50am 4ft 11s 6s 16 18 mph 1014.3mb 79f 78f
8:50am 4.5ft 12s 6s 13 18 mph 1014.1mb 79f 78f
7:50am 4ft 12s 6s 13 16 mph 1013.7mb 79f 78f
6:50am 4ft 11s 6s 9 11 mph 1013.9mb 79f 77f
5:50am 4.5ft 12s 5s 11 13 mph 1014.4mb 79f 76f
4:50am 4.5ft 12s 6s 20 25 mph 1014.9mb 79f 75f
3:50am 4.5ft 11s 6s 11 13 mph 1015.5mb 79f 79f
2:50am 4.5ft 13s 6s 11 13 mph 1016mb 79f 79f
1:50am 5ft 12s 6s 11 13 mph 1016.3mb 79f 79f
12:50am 5ft 13s 6s 11 13 mph 1015.8mb 79f 79f
Sat 04/25 11:50pm 4.5ft 13s 6s 11 13 mph 1015.7mb 79f 79f
10:50pm 5ft 13s 6s 11 13 mph 1015.2mb 79f 79f
9:50pm 5ft 13s 6s 16 18 mph 1014.7mb 79f 79f
8:50pm 5ft 13s 5s 13 16 mph 1014.1mb 79f 79f
7:50pm 5ft 13s 6s 16 20 mph 1014.2mb 79f 80f
6:50pm 5ft 13s 6s 16 18 mph 1014.2mb 79f 80f
5:50pm 5.5ft 14s 6s 18 22 mph 1014.4mb 79f 79f
4:50pm 5ft 14s 5s 20 22 mph 1015mb 79f 79f
3:50pm 6ft 13s 6s 18 20 mph 1015.7mb 79f 79f
2:50pm 5ft 14s 6s 16 20 mph 1016mb 79f 79f
1:50pm 5ft 13s 6s 16 20 mph 1016.5mb 79f 79f
12:50pm 6ft 14s 7s 18 20 mph 1016mb 79f 79f
11:50am 5ft 12s 7s 18 20 mph 1015.7mb 79f 79f
10:50am 5ft 14s 7s 13 20 mph 1015.5mb 79f 79f
9:50am 5.5ft 14s 7s 13 16 mph 1015.1mb 79f 78f
8:50am 5.5ft 14s 7s 13 16 mph 1014.4mb 79f 78f
7:50am 6ft 14s 8s 13 18 mph 1014.4mb 79f 78f
6:50am 5ft 14s 7s 13 16 mph 1014mb 79f 78f
5:50am 6ft 14s 8s 13 16 mph 1014.1mb 79f 78f
4:50am 5.5ft 14s 7s 13 16 mph 1014.9mb 79f 78f
3:50am 5ft 14s 7s 13 16 mph 1015.7mb 79f 79f
2:50am 5ft 14s 7s 13 16 mph 1016.1mb 79f 79f
1:50am 6ft 14s 8s 11 13 mph 1015.9mb 79f 79f
12:50am 5ft 15s 8s 11 13 mph 1015.8mb 79f 79f
Fri 04/24 11:50pm 5ft 15s 8s 11 13 mph 1015.2mb 79f 79f
10:50pm 5.5ft 14s 8s 13 16 mph 1014.9mb 79f 79f
9:50pm 5ft 14s 7s 13 18 mph 1014.6mb 79f 79f
8:50pm 6ft 15s 8s 13 16 mph 1014.4mb 79f 79f
7:50pm 5.5ft 15s 7s 13 18 mph 1014.2mb 79f 79f
6:50pm 5.5ft 15s 8s 16 18 mph 1014.4mb 79f 79f
5:50pm 6ft 15s 8s 16 18 mph 1014.8mb 79f 79f
4:50pm 6.5ft 15s 8s 13 18 mph 1015.5mb 79f 79f
3:50pm 6ft 14s 8s 13 18 mph 1016.1mb 79f 78f
2:50pm 6ft 16s 8s 13 18 mph 1016.1mb 79f 78f
1:50pm 6ft 16s 9s 13 16 mph 1016.6mb 79f 78f
12:50pm 7ft 15s 9s 13 18 mph 1016.6mb 79f 78f
11:50am 7.5ft 16s 10s 13 18 mph 1016.3mb 79f 78f
10:50am 6.5ft 15s 9s 13 16 mph 1016.2mb 79f 78f
9:50am 7ft 15s 9s 11 16 mph 1015.9mb 79f 78f
8:50am 6ft 15s 9s 13 16 mph 1015.4mb 79f 77f
7:50am 6.5ft 14s 10s 13 16 mph 1015.2mb 79f 77f
6:50am 6.5ft 16s 10s 9 11 mph 1015.4mb 79f 77f
5:50am 6ft 13s 9s 9 11 mph 1015.6mb 79f 78f
4:50am 7ft 15s 10s 11
mph
1015.9mb 79f 78f
3:50am 6ft 15s 9s 9 11 mph 1016.6mb 79f 78f
2:50am 6.5ft 15s 10s 9 11 mph 1017.1mb 79f 78f
1:50am 6.5ft 16s 9s 7 9 mph 1017.4mb 79f 78f
12:50am 7ft 16s 10s 7 9 mph 1017mb 79f 78f
Thu 04/23 11:50pm 7.5ft 15s 10s 4 7 mph 1017mb 79f 78f
10:50pm 7ft 16s 9s 4 7 mph 1016.5mb 79f 78f
9:50pm 6ft 14s 9s 7 11 mph 1015.9mb 79f 79f
8:50pm 7ft 15s 9s 9 11 mph 1015.5mb 79f 79f
7:50pm 6.5ft 16s 9s 7 11 mph 1015.9mb 79f 79f